Pagrindinis puslapis
METAR-TAF:

METAR-TAF

Oro uostai :

Windsor Locks, Konektikutas, Jungtinės Amerikos Valstijos

platuma: 41-56-17N, ilguma: 072-40-57W, Aukštis: 53 m

Dabartinis oras

Ataskaita buvo paskelbta 36 minutes, ne 06:51 UTC
Vėjas 20 kt iš Vakarų/Pietvakarių su gūsio iki 27 kt
Temperatūra -1°C
Drėgmė 40%
Slėgis 1006 hPa
Matomumas: 16.1 km
Mažai debesys ne aukštis 5500 ft
Išsisklaidę debesys ne aukštis 7000 ft

METAR: KBDL 280651Z 25020G27KT 10SM FEW055 SCT070 M01/M13 A2971 RMK AO2 PK WND 26027/0651 SLP064 T10111133

Laikas: 02:27 (07:27 UTC)

Prognozė

Ataskaita buvo paskelbta 2 valandos ir 3 minutes, ne 05:24 UTC
Prognozė galioja nuo 28 metu 06 UTC su 29 metu 12 UTC
Vėjas 16 kt iš Vakarų/Pietvakarių su gūsio iki 25 kt
Matomumas: 10 km
Išsisklaidę debesys ne aukštis 5000 ft
Nuo 29 metu 0000 UTC
Vėjas 7 kt iš Vakarų/Pietvakarių
Matomumas: 10 km
Išsisklaidę debesys ne aukštis 7000 ft

TAF: KBDL 280524Z 2806/2912 25016G25KT P6SM SCT050 FM290000 25007KT P6SM SCT070

Orai ataskaitas ir orų prognozės (METAR, TAF).

turimą stotys yra geltonos ir raudonos taškus žemėlapyje.

Perkelti pele per norėdami pamatyti stoties vardą.

Tada spustelėkite, norėdami matyti oro stebėjimo ir prognozės.

Norėdami pakeisti žemėlapį: spustelėkite ant žalios mygtukų su juodo kryžiaus žemyn,; žalią mygtuką su brūkšneliu, jei norite nutolinti; arba žalių rodyklių gretimoms žemėlapius.


METAR-TAF: